Time;durP1;ratioP1;P1;durP2;ratioP2;P2;SDS_P1;SDS_P2;PMS_P1;PMS_P2;Temp;Humidity;BMP_temperature;BMP_pressure;BME280_temperature;BME280_humidity;BME280_pressure;Samples;Min_cycle;Max_cycle;Signal;HPM_P1;HPM_P2
2021/01/17 00:00:32;;;;;;;43.65;22.40;;;0.20;99.90;;;;;;4956442;28;20031;-64
2021/01/17 00:03:00;;;;;;;48.22;23.58;;;0.10;99.90;;;;;;4955679;28;20591;-64
2021/01/17 00:05:27;;;;;;;49.17;23.85;;;0.20;99.90;;;;;;4955504;28;20430;-64
2021/01/17 00:07:53;;;;;;;46.95;23.63;;;0.10;99.90;;;;;;4954112;28;20035;-64
2021/01/17 00:10:28;;;;;;;48.63;24.37;;;0.10;99.90;;;;;;4955093;28;20045;-65
2021/01/17 00:12:56;;;;;;;42.58;22.95;;;0.30;99.90;;;;;;4955132;28;20466;-64
2021/01/17 00:15:22;;;;;;;46.17;23.27;;;0.30;99.90;;;;;;4955033;28;20389;-64
2021/01/17 00:17:48;;;;;;;47.78;23.75;;;0.30;99.90;;;;;;4955461;28;20033;-64
2021/01/17 00:20:21;;;;;;;46.22;23.75;;;0.20;99.90;;;;;;4955444;28;20034;-64
2021/01/17 00:22:48;;;;;;;46.20;24.50;;;0.20;99.90;;;;;;4955800;28;20415;-64
2021/01/17 00:25:18;;;;;;;49.45;24.50;;;0.20;99.90;;;;;;4955175;28;20034;-65
2021/01/17 00:27:54;;;;;;;47.63;24.50;;;0.20;99.90;;;;;;4955228;28;20039;-65
2021/01/17 00:30:22;;;;;;;46.70;24.20;;;0.10;99.90;;;;;;4953868;28;20035;-64
2021/01/17 00:32:52;;;;;;;47.47;23.60;;;0.20;99.90;;;;;;4954836;28;20511;-65
2021/01/17 00:35:18;;;;;;;47.28;23.98;;;0.20;99.90;;;;;;4954765;28;20062;-66
2021/01/17 00:37:45;;;;;;;46.35;24.65;;;0.20;99.90;;;;;;4954833;28;20058;-65
2021/01/17 00:40:11;;;;;;;;;;;0.20;99.90;;;;;;4955054;28;20031;-66
2021/01/17 00:42:43;;;;;;;46.33;24.40;;;0.40;99.90;;;;;;4954375;28;19914;-65
2021/01/17 00:45:09;;;;;;;46.53;22.95;;;0.40;99.90;;;;;;4954611;28;20023;-65
2021/01/17 00:47:35;;;;;;;52.72;25.17;;;0.20;99.90;;;;;;4954579;28;20479;-65
2021/01/17 00:50:00;;;;;;;45.27;22.70;;;0.10;99.90;;;;;;4953419;28;20054;-65
2021/01/17 00:52:26;;;;;;;45.50;23.13;;;0.10;99.90;;;;;;4954875;28;20106;-65
2021/01/17 00:54:51;;;;;;;45.83;23.37;;;0.10;99.90;;;;;;4954576;28;20155;-65
2021/01/17 00:57:17;;;;;;;46.97;23.00;;;0.20;99.90;;;;;;4953730;28;20023;-65
2021/01/17 00:59:43;;;;;;;52.10;24.43;;;0.00;99.90;;;;;;4954544;28;20480;-65
2021/01/17 01:02:09;;;;;;;47.30;24.45;;;0.00;99.90;;;;;;4954468;28;20034;-64
2021/01/17 01:04:35;;;;;;;49.28;24.15;;;0.10;99.90;;;;;;4954692;28;20031;-65
2021/01/17 01:07:01;;;;;;;50.83;24.10;;;0.10;99.90;;;;;;4954419;28;20020;-65
2021/01/17 01:09:27;;;;;;;47.08;22.92;;;0.20;99.90;;;;;;4957427;28;20388;-66
2021/01/17 01:11:53;;;;;;;45.50;22.07;;;0.30;99.90;;;;;;4962727;28;20038;-66
2021/01/17 01:14:18;;;;;;;46.58;23.85;;;0.20;99.90;;;;;;4959841;28;20270;-65
2021/01/17 01:16:49;;;;;;;45.97;24.23;;;0.30;99.90;;;;;;4962934;28;20031;-66
2021/01/17 01:19:15;;;;;;;44.53;22.80;;;0.20;99.90;;;;;;4959875;28;20027;-65
2021/01/17 01:21:40;;;;;;;44.50;23.23;;;0.10;99.90;;;;;;4954606;28;20069;-65
2021/01/17 01:24:06;;;;;;;48.07;24.00;;;0.20;99.90;;;;;;4954621;28;20027;-65
2021/01/17 01:26:40;;;;;;;46.83;22.88;;;0.20;99.90;;;;;;4954110;28;20030;-65
2021/01/17 01:29:06;;;;;;;48.53;23.70;;;0.20;99.90;;;;;;4952808;28;20039;-65
2021/01/17 01:31:33;;;;;;;45.15;22.50;;;0.20;99.90;;;;;;4952789;28;20513;-65
2021/01/17 01:33:59;;;;;;;44.38;23.00;;;0.20;99.90;;;;;;4952705;28;20031;-65
2021/01/17 01:36:33;;;;;;;47.22;23.77;;;0.30;99.90;;;;;;4952436;28;20055;-64
2021/01/17 01:39:00;;;;;;;45.15;23.20;;;0.50;99.90;;;;;;4953797;28;20027;-65
2021/01/17 01:41:30;;;;;;;48.15;25.38;;;0.60;99.90;;;;;;4952431;28;20035;-65
2021/01/17 01:43:56;;;;;;;49.08;23.60;;;0.40;99.90;;;;;;4953965;28;20038;-65
2021/01/17 01:46:24;;;;;;;49.40;23.58;;;0.50;99.90;;;;;;4953734;28;20117;-65
2021/01/17 01:48:52;;;;;;;43.47;23.40;;;0.40;99.90;;;;;;4952286;28;20028;-65
2021/01/17 01:51:19;;;;;;;47.90;23.58;;;0.30;99.90;;;;;;4953542;28;20038;-65
2021/01/17 01:53:45;;;;;;;47.67;23.65;;;0.20;99.90;;;;;;4953702;28;20042;-65
2021/01/17 01:56:13;;;;;;;47.90;23.70;;;0.30;99.90;;;;;;4953323;28;20035;-65
2021/01/17 01:58:41;;;;;;;43.30;21.60;;;0.40;99.90;;;;;;4953657;28;20106;-65
2021/01/17 02:01:07;;;;;;;44.60;24.02;;;0.60;99.90;;;;;;4953981;28;20444;-65
2021/01/17 02:03:33;;;;;;;40.42;21.35;;;0.80;99.90;;;;;;4953553;28;20031;-65
2021/01/17 02:06:04;;;;;;;41.65;21.02;;;0.80;99.90;;;;;;4953677;28;20114;-65
2021/01/17 02:08:56;;;;;;;41.92;21.38;;;0.70;99.90;;;;;;4952913;28;20034;-65
2021/01/17 02:11:33;;;;;;;46.60;22.02;;;0.80;99.90;;;;;;4953177;28;20031;-65
2021/01/17 02:14:17;;;;;;;47.88;22.67;;;0.50;99.90;;;;;;4952111;28;20023;-65
2021/01/17 02:16:46;;;;;;;41.78;21.13;;;0.30;99.90;;;;;;4953208;28;20480;-65
2021/01/17 02:19:14;;;;;;;43.78;21.80;;;0.30;99.90;;;;;;4953340;28;20023;-65
2021/01/17 02:21:47;;;;;;;47.92;22.13;;;0.40;99.90;;;;;;4953844;28;20033;-65
2021/01/17 02:24:17;;;;;;;43.92;23.52;;;0.40;99.90;;;;;;4953460;28;20038;-66
2021/01/17 02:26:42;;;;;;;41.22;22.00;;;0.40;99.90;;;;;;4953269;28;20039;-65
2021/01/17 02:29:09;;;;;;;45.93;22.30;;;0.40;99.90;;;;;;4954762;28;20077;-65
2021/01/17 02:31:37;;;;;;;38.53;20.00;;;0.40;99.90;;;;;;4953813;28;20031;-65
2021/01/17 02:34:07;;;;;;;37.97;19.13;;;0.50;99.90;;;;;;4953107;28;20504;-65
2021/01/17 02:37:07;;;;;;;41.58;19.70;;;0.50;99.90;;;;;;4952947;28;20069;-65
2021/01/17 02:39:59;;;;;;;41.35;20.02;;;0.40;99.90;;;;;;4953176;28;20030;-65
2021/01/17 02:42:25;;;;;;;36.53;18.50;;;0.60;99.90;;;;;;4952704;28;20028;-65
2021/01/17 02:44:51;;;;;;;38.60;19.52;;;0.60;99.90;;;;;;4952772;28;20507;-65
2021/01/17 02:47:17;;;;;;;35.33;19.02;;;0.50;99.90;;;;;;4953450;28;20053;-65
2021/01/17 02:49:42;;;;;;;35.93;19.43;;;0.40;99.90;;;;;;4953340;28;20473;-65
2021/01/17 02:52:08;;;;;;;33.03;18.77;;;0.50;99.90;;;;;;4952509;28;20035;-65
2021/01/17 02:54:37;;;;;;;33.23;16.53;;;0.80;99.90;;;;;;4952788;28;20503;-65
2021/01/17 02:57:08;;;;;;;33.80;18.77;;;1.00;99.90;;;;;;4953138;28;20035;-64
2021/01/17 02:59:41;;;;;;;33.75;17.90;;;0.80;99.90;;;;;;4951460;28;20027;-64
2021/01/17 03:02:09;;;;;;;32.60;17.15;;;0.70;99.90;;;;;;4952933;28;20041;-65
2021/01/17 03:04:43;;;;;;;35.25;16.92;;;0.70;99.90;;;;;;4952475;28;20498;-65
2021/01/17 03:07:12;;;;;;;34.95;17.35;;;0.60;99.90;;;;;;4951419;28;20041;-64
2021/01/17 03:09:38;;;;;;;34.70;17.73;;;0.70;99.90;;;;;;4952714;28;20093;-64
2021/01/17 03:12:05;;;;;;;31.77;16.33;;;0.80;99.90;;;;;;4952875;28;20484;-65
2021/01/17 03:14:34;;;;;;;36.83;18.95;;;0.80;99.90;;;;;;4952783;28;20038;-64
2021/01/17 03:17:01;;;;;;;32.58;17.40;;;0.60;99.90;;;;;;4951116;28;20066;-65
2021/01/17 03:19:26;;;;;;;33.63;17.52;;;0.50;99.90;;;;;;4950451;28;20038;-65
2021/01/17 03:21:52;;;;;;;32.07;17.27;;;0.50;99.90;;;;;;4952374;28;20062;-64
2021/01/17 03:24:18;;;;;;;31.50;17.07;;;0.50;99.90;;;;;;4952541;28;20024;-65
2021/01/17 03:26:43;;;;;;;32.33;16.87;;;0.40;99.90;;;;;;4952388;28;20106;-64
2021/01/17 03:29:09;;;;;;;34.27;17.63;;;0.50;99.90;;;;;;4952871;28;20035;-65
2021/01/17 03:31:34;;;;;;;37.07;18.73;;;0.40;99.90;;;;;;4952200;28;20034;-65
2021/01/17 03:34:00;;;;;;;40.67;18.37;;;0.60;99.90;;;;;;4952197;28;20447;-64
2021/01/17 03:36:25;;;;;;;31.97;17.10;;;0.60;99.90;;;;;;4952053;28;20026;-64
2021/01/17 03:38:51;;;;;;;34.70;17.63;;;0.80;99.90;;;;;;4950937;28;20546;-65
2021/01/17 03:41:17;;;;;;;38.07;18.83;;;0.70;99.90;;;;;;4951983;28;20024;-64
2021/01/17 03:43:42;;;;;;;36.77;19.07;;;0.60;99.90;;;;;;4952146;28;20480;-65
2021/01/17 03:46:08;;;;;;;35.07;19.07;;;0.50;99.90;;;;;;4952720;28;20027;-65
2021/01/17 03:48:33;;;;;;;33.70;17.70;;;0.40;99.90;;;;;;4950708;28;20090;-65
2021/01/17 03:50:59;;;;;;;34.43;16.97;;;0.60;99.90;;;;;;4951999;28;20020;-64
2021/01/17 03:53:25;;;;;;;30.20;16.73;;;0.70;99.90;;;;;;4950620;28;20031;-65
2021/01/17 03:55:50;;;;;;;29.77;15.73;;;0.70;99.90;;;;;;4952041;28;20395;-65
2021/01/17 03:58:16;;;;;;;28.17;15.10;;;0.60;99.90;;;;;;4952485;28;20035;-65
2021/01/17 04:00:41;;;;;;;28.67;15.57;;;0.60;99.90;;;;;;4952017;28;20027;-65
2021/01/17 04:03:09;;;;;;;32.53;15.80;;;0.50;99.90;;;;;;4952222;28;20372;-64
2021/01/17 04:05:35;;;;;;;31.65;16.15;;;0.50;99.90;;;;;;4952059;28;20040;-64
2021/01/17 04:08:00;;;;;;;28.57;15.23;;;0.50;99.90;;;;;;4952285;28;20034;-64
2021/01/17 04:10:26;;;;;;;30.30;15.97;;;0.40;99.90;;;;;;4951934;28;20115;-64
2021/01/17 04:12:52;;;;;;;29.67;16.33;;;0.30;99.90;;;;;;4951694;28;20097;-64
2021/01/17 04:15:17;;;;;;;28.90;15.87;;;0.20;99.90;;;;;;4951607;28;20027;-64
2021/01/17 04:17:46;;;;;;;29.40;16.13;;;0.40;99.90;;;;;;4950435;28;20032;-65
2021/01/17 04:20:12;;;;;;;32.38;16.30;;;0.60;99.90;;;;;;4951733;28;20495;-66
2021/01/17 04:22:38;;;;;;;34.70;16.87;;;0.50;99.90;;;;;;4951647;28;20027;-64
2021/01/17 04:25:07;;;;;;;31.33;16.50;;;0.50;99.90;;;;;;4951616;28;20472;-64
2021/01/17 04:27:33;;;;;;;30.23;15.93;;;0.60;99.90;;;;;;4950485;28;20035;-64
2021/01/17 04:29:59;;;;;;;32.60;16.48;;;0.80;99.90;;;;;;4951801;28;20030;-64
2021/01/17 04:32:25;;;;;;;34.93;18.20;;;0.60;99.90;;;;;;4954220;28;20103;-64
2021/01/17 04:34:51;;;;;;;33.90;18.35;;;0.50;99.90;;;;;;4955727;28;20429;-64
2021/01/17 04:37:21;;;;;;;33.30;17.15;;;0.50;99.90;;;;;;4954608;28;20036;-65
2021/01/17 04:39:47;;;;;;;33.25;18.13;;;0.40;99.90;;;;;;4954823;28;20055;-65
2021/01/17 04:42:16;;;;;;;38.63;19.92;;;0.30;99.90;;;;;;4976599;23;20043;-65
2021/01/17 04:44:44;;;;;;;38.90;18.17;;;0.20;99.90;;;;;;4954037;28;20078;-65
2021/01/17 04:47:12;;;;;;;41.33;20.80;;;0.20;99.90;;;;;;4954094;28;20456;-66
2021/01/17 04:49:38;;;;;;;38.58;19.20;;;0.20;99.90;;;;;;4952991;28;20461;-66
2021/01/17 04:52:07;;;;;;;38.38;18.25;;;0.20;99.90;;;;;;4954033;28;20038;-66
2021/01/17 04:54:32;;;;;;;39.97;20.55;;;0.20;99.90;;;;;;4954136;28;20096;-66
2021/01/17 04:57:29;;;;;;;36.30;19.27;;;0.10;99.90;;;;;;4954212;28;20035;-67
2021/01/17 05:00:03;;;;;;;36.42;19.05;;;0.20;99.90;;;;;;4954239;28;20114;-66
2021/01/17 05:02:35;;;;;;;40.22;20.88;;;0.20;99.90;;;;;;4954164;28;20023;-67
2021/01/17 05:05:15;;;;;;;39.08;19.40;;;0.20;99.90;;;;;;4954158;28;20027;-67
2021/01/17 05:07:49;;;;;;;40.85;20.55;;;0.20;99.90;;;;;;4954036;28;20023;-67
2021/01/17 05:10:32;;;;;;;39.17;19.83;;;0.20;99.90;;;;;;4952569;28;20035;-67
2021/01/17 05:13:07;;;;;;;38.00;19.90;;;0.20;99.90;;;;;;4952476;28;20024;-67
2021/01/17 05:15:38;;;;;;;38.25;19.85;;;0.20;99.90;;;;;;4952606;28;20037;-66
2021/01/17 05:18:04;;;;;;;40.17;20.25;;;0.10;99.90;;;;;;4954345;28;20023;-67
2021/01/17 05:20:30;;;;;;;38.60;19.88;;;0.10;99.90;;;;;;4954012;28;20563;-67
2021/01/17 05:22:57;;;;;;;38.93;19.90;;;0.10;99.90;;;;;;4953685;28;20118;-67
2021/01/17 05:25:26;;;;;;;40.17;19.20;;;0.10;99.90;;;;;;4953805;28;20043;-67
2021/01/17 05:27:52;;;;;;;39.33;20.15;;;0.10;99.90;;;;;;4953548;28;20058;-67
2021/01/17 05:30:18;;;;;;;39.43;20.30;;;0.10;99.90;;;;;;4953383;28;20027;-67
2021/01/17 05:32:48;;;;;;;40.22;21.05;;;0.10;99.90;;;;;;4952019;28;20369;-67
2021/01/17 05:35:14;;;;;;;41.63;20.83;;;0.10;99.90;;;;;;4953439;28;20039;-67
2021/01/17 05:37:52;;;;;;;37.53;19.03;;;0.20;99.90;;;;;;4952009;28;20023;-66
2021/01/17 05:40:18;;;;;;;39.47;19.33;;;0.30;99.90;;;;;;4953587;28;20027;-66
2021/01/17 05:42:46;;;;;;;41.25;20.17;;;0.30;99.90;;;;;;4951311;28;20443;-66
2021/01/17 05:45:12;;;;;;;37.22;19.45;;;0.20;99.90;;;;;;4953113;28;20027;-67
2021/01/17 05:47:38;;;;;;;36.00;18.35;;;0.20;99.90;;;;;;4953139;28;20042;-66
2021/01/17 05:50:13;;;;;;;38.60;19.35;;;0.20;99.90;;;;;;4953449;28;20081;-66
2021/01/17 05:52:39;;;;;;;36.35;18.75;;;0.20;99.90;;;;;;4953192;28;20388;-66
2021/01/17 05:55:06;;;;;;;36.92;19.13;;;0.20;99.90;;;;;;4953341;28;20019;-66
2021/01/17 05:57:35;;;;;;;35.35;18.67;;;0.30;99.90;;;;;;4953138;28;20027;-67
2021/01/17 06:00:01;;;;;;;36.13;18.25;;;0.40;99.90;;;;;;4953359;28;20026;-68
2021/01/17 06:02:28;;;;;;;39.15;18.88;;;0.30;99.90;;;;;;4955385;28;20031;-67
2021/01/17 06:04:58;;;;;;;36.30;18.10;;;0.30;99.90;;;;;;4953433;28;20050;-68
2021/01/17 06:07:32;;;;;;;36.55;17.98;;;0.30;99.90;;;;;;4954796;28;20058;-67
2021/01/17 06:10:02;;;;;;;40.35;18.98;;;0.30;99.90;;;;;;4953145;28;20025;-67
2021/01/17 06:12:32;;;;;;;35.60;19.00;;;0.30;99.90;;;;;;4952939;28;20023;-66
2021/01/17 06:15:08;;;;;;;33.70;17.55;;;0.30;99.90;;;;;;4952785;28;20027;-67
2021/01/17 06:17:36;;;;;;;39.03;18.65;;;0.40;99.90;;;;;;4951369;28;20030;-66
2021/01/17 06:20:08;;;;;;;32.88;18.08;;;0.30;99.90;;;;;;4953078;28;20107;-67
2021/01/17 06:22:35;;;;;;;34.00;17.58;;;0.30;99.90;;;;;;4952629;28;20425;-66
2021/01/17 06:25:04;;;;;;;34.88;17.48;;;0.30;99.90;;;;;;4952536;28;20055;-66
2021/01/17 06:27:29;;;;;;;34.05;16.92;;;0.40;99.90;;;;;;4951027;28;20020;-66
2021/01/17 06:29:56;;;;;;;33.33;17.98;;;0.40;99.90;;;;;;4952610;28;20506;-64
2021/01/17 06:32:29;;;;;;;35.13;17.55;;;0.40;99.90;;;;;;4953307;28;20534;-66
2021/01/17 06:34:57;;;;;;;32.80;16.48;;;0.50;99.90;;;;;;4954969;28;20530;-66
2021/01/17 06:37:25;;;;;;;33.22;17.77;;;0.50;99.90;;;;;;4952700;28;20055;-67
2021/01/17 06:39:53;;;;;;;35.25;17.88;;;0.50;99.90;;;;;;4952556;28;20063;-67
2021/01/17 06:42:20;;;;;;;35.88;17.50;;;0.50;99.90;;;;;;4950974;28;20031;-67
2021/01/17 06:44:47;;;;;;;36.30;17.42;;;0.50;99.90;;;;;;4952409;28;20023;-68
2021/01/17 06:47:24;;;;;;;33.30;18.20;;;0.50;99.90;;;;;;4952478;28;20123;-67
2021/01/17 06:49:54;;;;;;;33.67;17.27;;;0.50;99.90;;;;;;4952641;28;20051;-66
2021/01/17 06:52:20;;;;;;;34.53;17.85;;;0.50;99.90;;;;;;4952309;28;20399;-67
2021/01/17 06:54:47;;;;;;;;;;;0.50;99.90;;;;;;4952495;28;20023;-68
2021/01/17 06:57:14;;;;;;;32.50;16.98;;;0.60;99.90;;;;;;4952374;28;19917;-67
2021/01/17 06:59:40;;;;;;;;;;;0.60;99.90;;;;;;4952898;28;20102;-67
2021/01/17 07:02:15;;;;;;;31.73;16.60;;;0.60;99.90;;;;;;4952114;28;20287;-67
2021/01/17 07:04:54;;;;;;;34.40;18.08;;;0.60;99.90;;;;;;4951117;28;20093;-67
2021/01/17 07:07:53;;;;;;;33.60;16.52;;;0.60;99.90;;;;;;4952161;28;20023;-67
2021/01/17 07:10:21;;;;;;;32.63;17.10;;;0.70;99.90;;;;;;4950750;28;20031;-67
2021/01/17 07:13:09;;;;;;;31.75;16.55;;;0.70;99.90;;;;;;4952186;28;20047;-67
2021/01/17 07:15:39;;;;;;;34.72;17.83;;;0.70;99.90;;;;;;4952332;28;20030;-66
2021/01/17 07:18:13;;;;;;;33.65;17.52;;;0.70;99.90;;;;;;4952026;28;20024;-66
2021/01/17 07:20:47;;;;;;;31.85;17.40;;;0.70;99.90;;;;;;4950618;28;20027;-67
2021/01/17 07:23:15;;;;;;;30.42;16.95;;;0.70;99.90;;;;;;4952011;28;20026;-67
2021/01/17 07:25:45;;;;;;;30.13;16.48;;;0.80;99.90;;;;;;4952124;28;20027;-65
2021/01/17 07:28:21;;;;;;;30.50;16.25;;;0.80;99.90;;;;;;4951859;28;20027;-66
2021/01/17 07:30:52;;;;;;;32.40;16.63;;;0.80;99.90;;;;;;4951810;28;20032;-66
2021/01/17 07:33:26;;;;;;;33.40;17.67;;;0.80;99.90;;;;;;4951946;28;20035;-66
2021/01/17 07:35:54;;;;;;;31.75;17.13;;;0.90;99.90;;;;;;4952634;28;20396;-67
2021/01/17 07:38:22;;;;;;;30.15;16.70;;;0.90;99.90;;;;;;4951847;28;20048;-66
2021/01/17 07:40:59;;;;;;;28.35;16.05;;;0.90;99.90;;;;;;4951797;28;20254;-66
2021/01/17 07:43:29;;;;;;;30.15;15.90;;;1.00;99.90;;;;;;4950043;28;20153;-66
2021/01/17 07:46:03;;;;;;;31.88;17.05;;;1.00;99.90;;;;;;4951439;28;20073;-67
2021/01/17 07:48:29;;;;;;;29.30;16.33;;;1.00;99.90;;;;;;4953837;28;20057;-67
2021/01/17 07:50:56;;;;;;;31.92;16.98;;;1.00;99.90;;;;;;4951596;28;20032;-66
2021/01/17 07:53:44;;;;;;;38.13;14.80;;;1.00;99.90;;;;;;4951414;28;20028;-66
2021/01/17 07:56:16;;;;;;;;;;;1.00;99.90;;;;;;4951764;28;20027;-66
2021/01/17 07:58:50;;;;;;;32.10;16.65;;;1.10;99.90;;;;;;4950059;29;19918;-67
2021/01/17 08:01:31;;;;;;;30.83;16.13;;;1.00;99.90;;;;;;4950252;28;20023;-67
2021/01/17 08:04:05;;;;;;;31.77;16.42;;;1.00;99.90;;;;;;4951619;28;20355;-66
2021/01/17 08:06:34;;;;;;;35.55;16.33;;;1.00;99.90;;;;;;4953002;28;20027;-67
2021/01/17 08:09:05;;;;;;;33.47;16.95;;;1.00;99.90;;;;;;4956785;28;20125;-68
2021/01/17 08:11:56;;;;;;;32.40;16.98;;;1.00;99.90;;;;;;4954852;28;20492;-66
2021/01/17 08:14:32;;;;;;;33.72;17.42;;;1.00;99.90;;;;;;4954787;28;20038;-66
2021/01/17 08:17:20;;;;;;;30.35;17.40;;;1.10;99.90;;;;;;4954999;28;20023;-67
2021/01/17 08:19:53;;;;;;;32.20;17.17;;;1.10;99.90;;;;;;4954738;28;20084;-67
2021/01/17 08:22:19;;;;;;;29.95;16.17;;;1.10;99.90;;;;;;4953196;28;20037;-66
2021/01/17 08:24:50;;;;;;;29.50;16.42;;;1.10;99.90;;;;;;4954706;28;20034;-67
2021/01/17 08:27:31;;;;;;;31.77;16.45;;;1.10;99.90;;;;;;4954799;28;20077;-66
2021/01/17 08:30:03;;;;;;;33.13;16.08;;;1.10;99.90;;;;;;4954605;28;20053;-67
2021/01/17 08:32:34;;;;;;;33.15;18.02;;;1.10;99.90;;;;;;4954490;28;20045;-66
2021/01/17 08:35:20;;;;;;;31.45;16.80;;;1.10;99.90;;;;;;4953544;28;20435;-67
2021/01/17 08:37:45;;;;;;;32.22;16.85;;;1.20;99.90;;;;;;4954319;28;20023;-67
2021/01/17 08:40:15;;;;;;;31.33;16.80;;;1.20;99.90;;;;;;4954409;28;20027;-68
2021/01/17 08:42:58;;;;;;;32.40;16.33;;;1.20;99.90;;;;;;4954237;28;20184;-68
2021/01/17 08:45:24;;;;;;;31.45;16.52;;;1.20;99.90;;;;;;4954409;28;20073;-66
2021/01/17 08:47:51;;;;;;;30.33;15.67;;;1.20;99.90;;;;;;4954731;28;20027;-67
2021/01/17 08:50:40;;;;;;;30.65;16.20;;;1.20;99.90;;;;;;4954141;28;20472;-67
2021/01/17 08:53:09;;;;;;;30.25;16.08;;;1.20;99.90;;;;;;4960437;28;20078;-67
2021/01/17 08:55:38;;;;;;;34.55;17.38;;;1.20;99.90;;;;;;4954657;28;20027;-66
2021/01/17 08:58:05;;;;;;;34.45;16.15;;;1.20;99.90;;;;;;4953022;28;20053;-64
2021/01/17 09:00:48;;;;;;;32.10;16.80;;;1.30;99.90;;;;;;4954715;28;20023;-65
2021/01/17 09:03:28;;;;;;;32.15;16.88;;;1.30;99.90;;;;;;4954649;28;20024;-67
2021/01/17 09:05:59;;;;;;;31.13;15.35;;;1.30;99.90;;;;;;4954586;28;20042;-66
2021/01/17 09:08:26;;;;;;;32.58;16.73;;;1.40;99.90;;;;;;4954210;28;20493;-66
2021/01/17 09:10:52;;;;;;;32.75;17.48;;;1.40;99.90;;;;;;4953832;28;20391;-66
2021/01/17 09:13:29;;;;;;;34.05;17.88;;;1.40;99.90;;;;;;4954678;28;20029;-66
2021/01/17 09:16:06;;;;;;;33.05;16.52;;;1.30;99.90;;;;;;4952887;28;20134;-63
2021/01/17 09:18:37;;;;;;;29.40;16.42;;;1.30;99.90;;;;;;4953416;28;20234;-62
2021/01/17 09:21:05;;;;;;;31.98;16.90;;;1.40;99.90;;;;;;4953989;28;20030;-66
2021/01/17 09:23:36;;;;;;;35.10;17.02;;;1.40;99.90;;;;;;4952594;28;20046;-66
2021/01/17 09:26:03;;;;;;;33.03;16.73;;;1.40;99.90;;;;;;4953999;28;20553;-66
2021/01/17 09:28:29;;;;;;;31.13;16.75;;;1.40;99.90;;;;;;4954170;28;20041;-64
2021/01/17 09:30:58;;;;;;;31.75;16.33;;;1.40;99.90;;;;;;4954200;28;20035;-66
2021/01/17 09:33:24;;;;;;;33.58;16.90;;;1.50;99.90;;;;;;4952411;28;20115;-66
2021/01/17 09:35:51;;;;;;;33.60;16.48;;;1.40;99.90;;;;;;4953702;28;20454;-66
2021/01/17 09:38:19;;;;;;;30.20;16.80;;;1.50;99.90;;;;;;4954471;28;20023;-66
2021/01/17 09:40:49;;;;;;;29.13;15.48;;;1.40;99.90;;;;;;4951876;28;20033;-69
2021/01/17 09:43:18;;;;;;;30.85;15.68;;;1.50;99.90;;;;;;4953241;28;20066;-69
2021/01/17 09:45:51;;;;;;;28.15;15.10;;;1.50;99.90;;;;;;4952095;28;20031;-67
2021/01/17 09:48:22;;;;;;;30.42;16.63;;;1.50;99.90;;;;;;4953443;28;20431;-67
2021/01/17 09:50:50;;;;;;;31.83;15.88;;;1.50;99.90;;;;;;4954066;28;20138;-67
2021/01/17 09:53:16;;;;;;;30.98;16.48;;;1.50;99.90;;;;;;4952097;28;20442;-67
2021/01/17 09:55:43;;;;;;;33.50;16.63;;;1.50;99.90;;;;;;4951709;28;20031;-67
2021/01/17 09:58:14;;;;;;;33.75;16.33;;;1.50;99.90;;;;;;4953276;28;20050;-68
2021/01/17 10:00:42;;;;;;;30.58;16.10;;;1.50;99.90;;;;;;4953297;28;20407;-68
2021/01/17 10:03:15;;;;;;;30.98;16.20;;;1.50;99.90;;;;;;4953110;28;20015;-67
2021/01/17 10:05:43;;;;;;;31.10;16.15;;;1.50;99.90;;;;;;4951749;28;20126;-69
2021/01/17 10:08:11;;;;;;;32.63;17.00;;;1.50;99.90;;;;;;4953128;28;20080;-69
2021/01/17 10:10:38;;;;;;;41.10;17.63;;;1.40;99.90;;;;;;4952926;28;20057;-68
2021/01/17 10:13:07;;;;;;;35.85;17.42;;;1.50;99.90;;;;;;4952482;28;20027;-67
2021/01/17 10:15:33;;;;;;;37.75;17.67;;;1.50;99.90;;;;;;4952912;28;20019;-68
2021/01/17 10:17:58;;;;;;;48.22;17.83;;;1.50;99.90;;;;;;4952982;28;20069;-68
2021/01/17 10:20:29;;;;;;;35.40;17.23;;;1.50;99.90;;;;;;4952893;28;20035;-68
2021/01/17 10:23:04;;;;;;;31.85;17.00;;;1.40;99.90;;;;;;4952803;28;20110;-68
2021/01/17 10:25:32;;;;;;;37.08;17.58;;;1.40;99.90;;;;;;4951340;28;20100;-68
2021/01/17 10:28:04;;;;;;;39.78;18.95;;;1.50;99.90;;;;;;4952678;28;20023;-67
2021/01/17 10:30:33;;;;;;;36.53;18.65;;;1.50;99.90;;;;;;4953162;28;20035;-67
2021/01/17 10:33:07;;;;;;;37.97;18.45;;;1.50;99.90;;;;;;4952945;28;20023;-68
2021/01/17 10:35:44;;;;;;;37.13;17.40;;;1.50;99.90;;;;;;4951321;28;20077;-68
2021/01/17 10:38:11;;;;;;;31.30;15.45;;;1.60;99.90;;;;;;4952605;28;20487;-67
2021/01/17 10:40:37;;;;;;;38.90;17.25;;;1.60;99.90;;;;;;4951062;28;20122;-67
2021/01/17 10:43:06;;;;;;;35.92;17.15;;;1.70;99.90;;;;;;4952722;28;20061;-71
2021/01/17 10:45:33;;;;;;;28.00;15.85;;;1.70;99.90;;;;;;4951037;28;20031;-67
2021/01/17 10:48:03;;;;;;;31.60;15.90;;;1.60;99.90;;;;;;4952629;28;20515;-70
2021/01/17 10:50:35;;;;;;;31.92;16.92;;;1.60;99.90;;;;;;4951973;28;20093;-71
2021/01/17 10:53:10;;;;;;;30.73;16.75;;;1.60;99.90;;;;;;4950978;28;20033;-71
2021/01/17 10:55:37;;;;;;;31.35;16.10;;;1.70;99.90;;;;;;4952655;28;20031;-71
2021/01/17 10:58:04;;;;;;;30.00;16.13;;;1.70;99.90;;;;;;4951503;29;20109;-68
2021/01/17 11:00:30;;;;;;;27.40;14.68;;;1.80;99.90;;;;;;4952170;28;20103;-70
2021/01/17 11:03:04;;;;;;;30.45;15.95;;;1.80;99.90;;;;;;4951024;28;20122;-72
2021/01/17 11:05:30;;;;;;;28.13;16.45;;;1.90;99.90;;;;;;4952173;28;20038;-70
2021/01/17 11:07:56;;;;;;;26.50;14.90;;;1.90;99.90;;;;;;4952085;28;20586;-69
2021/01/17 11:10:22;;;;;;;27.98;16.48;;;1.90;99.90;;;;;;4950977;28;20031;-69
2021/01/17 11:12:49;;;;;;;36.38;16.98;;;1.90;99.90;;;;;;4952260;28;20035;-71
2021/01/17 11:15:16;;;;;;;31.38;16.65;;;1.90;99.90;;;;;;4951135;28;20027;-70
2021/01/17 11:17:56;;;;;;;27.95;16.73;;;1.90;99.90;;;;;;4951447;28;20428;-74
2021/01/17 11:20:27;;;;;;;28.48;15.13;;;1.90;99.90;;;;;;4951775;28;20055;-75
2021/01/17 11:23:03;;;;;;;28.35;16.30;;;2.00;99.90;;;;;;4951501;28;20024;-74
2021/01/17 11:25:31;;;;;;;25.33;14.77;;;1.90;99.90;;;;;;4952129;28;20027;-73
2021/01/17 11:28:04;;;;;;;24.33;14.55;;;1.90;99.90;;;;;;4954126;28;20050;-75
2021/01/17 11:30:31;;;;;;;30.75;14.48;;;1.90;99.90;;;;;;4953386;28;20478;-74
2021/01/17 11:33:09;;;;;;;24.52;14.40;;;1.90;99.90;;;;;;4951989;28;20056;-72
2021/01/17 11:35:35;;;;;;;24.65;14.30;;;1.90;99.90;;;;;;4952475;28;20024;-70
2021/01/17 11:38:01;;;;;;;24.25;14.35;;;1.90;99.90;;;;;;4952276;28;20076;-69
2021/01/17 11:40:26;;;;;;;25.60;14.67;;;1.90;99.90;;;;;;4953529;28;20086;-68
2021/01/17 11:43:06;;;;;;;28.77;16.27;;;1.90;99.90;;;;;;4954916;28;20506;-69
2021/01/17 11:45:32;;;;;;;23.67;13.35;;;2.00;99.90;;;;;;4955511;28;20110;-69
2021/01/17 11:47:59;;;;;;;26.50;13.73;;;2.00;99.90;;;;;;4958037;28;20051;-68
2021/01/17 11:50:25;;;;;;;27.27;14.10;;;1.90;99.90;;;;;;4953877;28;20039;-68
2021/01/17 11:52:59;;;;;;;24.73;13.35;;;1.90;99.90;;;;;;4955146;28;20028;-70
2021/01/17 11:55:26;;;;;;;26.33;13.68;;;1.90;99.90;;;;;;4954040;28;20035;-68
2021/01/17 11:58:10;;;;;;;28.05;15.32;;;1.90;99.90;;;;;;4954226;28;20435;-70
2021/01/17 12:00:52;;;;;;;25.83;14.27;;;1.80;99.90;;;;;;4955693;28;20425;-68
2021/01/17 12:03:36;;;;;;;24.63;13.63;;;1.80;99.90;;;;;;4954334;28;20027;-69
2021/01/17 12:06:12;;;;;;;24.42;14.35;;;1.80;99.90;;;;;;4955323;28;20564;-67
2021/01/17 12:09:01;;;;;;;20.52;12.57;;;1.80;99.90;;;;;;4955315;28;20101;-69
2021/01/17 12:11:30;;;;;;;24.00;13.38;;;1.80;99.90;;;;;;4954807;28;20035;-69
2021/01/17 12:13:56;;;;;;;25.75;13.68;;;1.80;99.90;;;;;;4956037;28;20028;-70
2021/01/17 12:16:27;;;;;;;21.55;12.40;;;1.90;99.90;;;;;;4955747;28;20114;-71
2021/01/17 12:18:53;;;;;;;20.17;11.77;;;1.90;99.90;;;;;;4955745;28;20027;-70
2021/01/17 12:21:27;;;;;;;21.83;12.87;;;1.90;99.90;;;;;;4954653;28;20019;-71
2021/01/17 12:23:53;;;;;;;21.48;12.80;;;2.00;99.90;;;;;;4954250;28;20024;-68
2021/01/17 12:26:19;;;;;;;18.40;11.77;;;2.00;99.90;;;;;;4955820;28;20031;-66
2021/01/17 12:28:45;;;;;;;19.35;10.98;;;2.00;99.90;;;;;;4954326;28;20151;-67
2021/01/17 12:31:12;;;;;;;21.40;13.07;;;1.90;99.90;;;;;;4953739;28;20029;-67
2021/01/17 12:33:38;;;;;;;18.83;11.98;;;1.90;99.90;;;;;;4954067;28;20027;-70
2021/01/17 12:36:05;;;;;;;;;;;1.90;99.90;;;;;;4954146;28;20059;-69
2021/01/17 12:38:30;;;;;;;18.23;11.65;;;2.00;99.90;;;;;;4953399;28;19907;-68
2021/01/17 12:40:56;;;;;;;19.23;11.60;;;2.00;99.90;;;;;;4954783;28;20024;-68
2021/01/17 12:43:22;;;;;;;19.73;12.10;;;1.90;99.90;;;;;;4954424;28;20046;-68
2021/01/17 12:45:48;;;;;;;19.07;12.20;;;1.90;99.90;;;;;;4953392;28;20035;-67
2021/01/17 12:48:13;;;;;;;20.05;12.35;;;1.90;99.90;;;;;;4954190;29;20126;-67
2021/01/17 12:50:39;;;;;;;19.63;11.80;;;1.90;99.90;;;;;;4954247;28;20434;-67